Time;durP1;ratioP1;P1;durP2;ratioP2;P2;SDS_P1;SDS_P2;PMS_P1;PMS_P2;Temp;Humidity;BMP_temperature;BMP_pressure;BME280_temperature;BME280_humidity;BME280_pressure;Samples;Min_cycle;Max_cycle;Signal;HPM_P1;HPM_P2
2023/08/10 00:00:26;;;;;;;1.93;1.73;;;22.40;96.40;;;;;;5027213;28;20460;-82
2023/08/10 00:02:53;;;;;;;1.30;1.20;;;22.40;96.40;;;;;;5027008;28;21268;-81
2023/08/10 00:05:21;;;;;;;2.90;1.40;;;22.40;96.40;;;;;;5022581;28;20462;-82
2023/08/10 00:07:48;;;;;;;1.50;1.40;;;22.30;96.40;;;;;;5025602;28;20485;-79
2023/08/10 00:10:14;;;;;;;2.17;1.80;;;22.30;96.40;;;;;;5025618;28;20466;-80
2023/08/10 00:12:41;;;;;;;2.80;1.30;;;22.30;96.40;;;;;;5026431;28;20452;-80
2023/08/10 00:15:09;;;;;;;1.63;1.53;;;22.30;96.50;;;;;;5027108;28;20547;-80
2023/08/10 00:17:35;;;;;;;1.50;1.40;;;22.30;96.50;;;;;;5031373;28;20503;-80
2023/08/10 00:20:05;;;;;;;1.80;1.43;;;22.30;96.50;;;;;;5028251;28;20459;-80
2023/08/10 00:22:33;;;;;;;1.53;1.43;;;22.30;96.50;;;;;;5028284;28;20466;-79
2023/08/10 00:25:00;;;;;;;1.70;1.60;;;22.20;96.50;;;;;;5026470;28;20457;-79
2023/08/10 00:27:26;;;;;;;1.90;1.70;;;22.20;96.50;;;;;;5024347;28;21002;-81
2023/08/10 00:29:53;;;;;;;1.87;1.67;;;22.30;96.60;;;;;;5026702;28;20462;-79
2023/08/10 00:32:21;;;;;;;1.60;1.50;;;22.20;96.60;;;;;;5023849;28;20859;-81
2023/08/10 00:34:48;;;;;;;1.73;1.53;;;22.20;96.60;;;;;;5024514;28;20982;-81
2023/08/10 00:37:15;;;;;;;1.70;1.60;;;22.20;96.60;;;;;;5023912;28;20462;-81
2023/08/10 00:39:43;;;;;;;2.17;1.73;;;22.20;96.70;;;;;;5023379;28;20458;-80
2023/08/10 00:42:10;;;;;;;1.47;1.37;;;22.20;96.70;;;;;;5023920;28;20451;-80
2023/08/10 00:44:37;;;;;;;2.70;1.50;;;22.20;96.70;;;;;;5022112;28;20931;-80
2023/08/10 00:47:04;;;;;;;1.63;1.40;;;22.20;96.70;;;;;;5021674;28;20471;-80
2023/08/10 00:49:32;;;;;;;2.77;1.73;;;22.20;96.80;;;;;;5024496;28;20870;-80
2023/08/10 00:51:59;;;;;;;1.93;1.53;;;22.20;96.80;;;;;;5024737;28;20461;-80
2023/08/10 00:54:25;;;;;;;2.43;1.30;;;22.10;96.80;;;;;;5020447;28;20477;-80
2023/08/10 00:56:54;;;;;;;1.60;1.50;;;22.10;96.80;;;;;;5025991;28;20478;-81
2023/08/10 00:59:21;;;;;;;2.00;1.90;;;22.10;96.80;;;;;;5025049;28;20458;-80
2023/08/10 01:01:47;;;;;;;1.70;1.60;;;22.10;96.80;;;;;;5022532;28;20449;-80
2023/08/10 01:04:14;;;;;;;2.40;1.50;;;22.10;96.90;;;;;;5025261;28;20457;-80
2023/08/10 01:06:49;;;;;;;1.77;1.67;;;22.10;96.90;;;;;;5027164;28;20438;-80
2023/08/10 01:09:23;;;;;;;1.70;1.60;;;22.10;96.90;;;;;;5024122;28;20462;-80
2023/08/10 01:11:59;;;;;;;1.97;1.57;;;22.10;97.00;;;;;;5023989;28;20466;-81
2023/08/10 01:14:36;;;;;;;1.83;1.63;;;22.10;97.00;;;;;;5021272;28;20599;-81
2023/08/10 01:17:08;;;;;;;1.50;1.40;;;22.10;97.00;;;;;;5024004;28;20476;-79
2023/08/10 01:19:38;;;;;;;1.70;1.60;;;22.00;97.30;;;;;;5021579;28;20462;-79
2023/08/10 01:22:14;;;;;;;1.50;1.37;;;22.00;97.00;;;;;;5026438;28;20450;-81
2023/08/10 01:24:43;;;;;;;1.70;1.60;;;22.00;97.00;;;;;;5022202;28;20457;-81
2023/08/10 01:27:12;;;;;;;1.50;1.37;;;22.00;97.10;;;;;;5021058;28;20462;-81
2023/08/10 01:29:39;;;;;;;1.80;1.70;;;22.00;97.10;;;;;;5024350;28;21022;-81
2023/08/10 01:32:12;;;;;;;1.90;1.70;;;22.00;97.10;;;;;;5024663;28;20473;-81
2023/08/10 01:34:39;;;;;;;1.60;1.50;;;22.00;97.10;;;;;;5023351;28;20744;-79
2023/08/10 01:37:06;;;;;;;1.53;1.30;;;22.00;97.20;;;;;;5025565;28;20466;-79
2023/08/10 01:39:33;;;;;;;2.23;2.03;;;22.00;97.20;;;;;;5026308;28;20861;-81
2023/08/10 01:41:59;;;;;;;1.60;1.50;;;22.00;97.20;;;;;;5024460;28;20489;-81
2023/08/10 01:44:28;;;;;;;1.67;1.57;;;22.00;97.20;;;;;;5026802;28;20835;-81
2023/08/10 01:46:57;;;;;;;1.80;1.70;;;22.00;97.30;;;;;;5025185;28;20787;-81
2023/08/10 01:49:25;;;;;;;5.20;1.73;;;21.90;97.60;;;;;;5027085;28;20989;-81
2023/08/10 01:51:53;;;;;;;1.90;1.67;;;21.90;97.30;;;;;;5027087;28;20771;-81
2023/08/10 01:54:22;;;;;;;1.70;1.53;;;21.90;97.30;;;;;;5023959;28;20991;-82
2023/08/10 01:56:48;;;;;;;2.10;1.77;;;21.90;97.30;;;;;;5023266;28;20964;-81
2023/08/10 01:59:15;;;;;;;2.30;1.30;;;21.90;97.30;;;;;;5023823;28;20550;-81
2023/08/10 02:01:44;;;;;;;1.87;1.67;;;21.90;97.30;;;;;;5023279;28;20466;-81
2023/08/10 02:04:10;;;;;;;1.80;1.70;;;21.90;97.40;;;;;;5022797;28;20997;-81
2023/08/10 02:06:40;;;;;;;1.60;1.50;;;21.90;97.40;;;;;;5024196;28;20461;-81
2023/08/10 02:09:07;;;;;;;1.47;1.37;;;21.90;97.40;;;;;;5028430;28;20500;-81
2023/08/10 02:11:34;;;;;;;1.60;1.43;;;21.90;97.40;;;;;;5026062;28;20813;-81
2023/08/10 02:14:00;;;;;;;1.60;1.50;;;21.90;97.50;;;;;;5029211;28;20470;-81
2023/08/10 02:16:27;;;;;;;1.43;1.27;;;21.90;97.50;;;;;;5027184;28;20453;-81
2023/08/10 02:18:55;;;;;;;1.90;1.67;;;21.90;97.50;;;;;;5028063;28;20461;-81
2023/08/10 02:21:23;;;;;;;1.57;1.47;;;21.80;97.50;;;;;;5028993;28;20476;-81
2023/08/10 02:23:50;;;;;;;2.00;1.80;;;21.80;97.50;;;;;;5029021;28;20469;-81
2023/08/10 02:26:17;;;;;;;1.87;1.70;;;21.80;97.50;;;;;;5025963;28;20461;-82
2023/08/10 02:28:44;;;;;;;1.30;1.20;;;21.80;97.50;;;;;;5028333;28;20489;-81
2023/08/10 02:31:10;;;;;;;1.50;1.40;;;21.80;97.60;;;;;;5027715;28;20461;-81
2023/08/10 02:33:37;;;;;;;1.83;1.70;;;21.80;97.60;;;;;;5028432;28;20484;-82
2023/08/10 02:36:06;;;;;;;1.60;1.37;;;21.80;97.60;;;;;;5029110;28;20552;-82
2023/08/10 02:38:32;;;;;;;1.67;1.40;;;21.80;97.60;;;;;;5027239;28;20454;-82
2023/08/10 02:40:59;;;;;;;1.60;1.50;;;21.80;97.60;;;;;;5031841;28;20461;-81
2023/08/10 02:43:26;;;;;;;1.30;1.20;;;21.80;97.70;;;;;;5030457;28;20453;-81
2023/08/10 02:45:53;;;;;;;2.27;1.60;;;21.80;97.70;;;;;;5022226;28;21830;-80
2023/08/10 02:48:20;;;;;;;1.33;1.23;;;21.80;97.70;;;;;;5025139;28;21002;-80
2023/08/10 02:50:48;;;;;;;1.65;1.55;;;21.80;97.70;;;;;;5027776;28;21084;-89
2023/08/10 02:53:16;;;;;;;1.83;1.40;;;21.80;97.70;;;;;;5032126;28;20210;-87
2023/08/10 02:55:44;;;;;;;1.80;1.70;;;21.70;97.70;;;;;;5025494;28;20461;-88
2023/08/10 02:58:11;;;;;;;1.80;1.70;;;21.70;97.70;;;;;;5028211;28;20477;-87
2023/08/10 03:00:37;;;;;;;2.00;1.80;;;21.80;97.80;;;;;;5025445;28;20449;-88
2023/08/10 03:03:05;;;;;;;1.50;1.37;;;21.70;97.70;;;;;;5029308;28;20469;-87
2023/08/10 03:05:32;;;;;;;1.60;1.23;;;21.70;97.80;;;;;;5028537;28;20461;-88
2023/08/10 03:07:59;;;;;;;1.50;1.40;;;21.70;97.80;;;;;;5030498;28;20481;-88
2023/08/10 03:10:28;;;;;;;1.50;1.40;;;21.70;97.80;;;;;;5030440;28;20449;-88
2023/08/10 03:12:54;;;;;;;1.70;1.60;;;21.70;97.80;;;;;;5030472;28;20889;-88
2023/08/10 03:15:22;;;;;;;2.00;1.43;;;21.70;97.80;;;;;;5026155;28;20490;-87
2023/08/10 03:17:49;;;;;;;1.40;1.30;;;21.70;97.90;;;;;;5031831;28;21146;-87
2023/08/10 03:20:16;;;;;;;2.83;1.83;;;21.70;97.90;;;;;;5031169;28;20511;-87
2023/08/10 03:22:44;;;;;;;1.50;1.40;;;21.70;97.90;;;;;;5030843;28;20513;-87
2023/08/10 03:25:14;;;;;;;1.43;1.30;;;21.70;97.90;;;;;;5026122;28;20469;-88
2023/08/10 03:27:42;;;;;;;1.90;1.30;;;21.70;97.90;;;;;;5028723;28;20458;-87
2023/08/10 03:30:10;;;;;;;1.83;1.70;;;21.70;98.00;;;;;;5027390;28;20469;-87
2023/08/10 03:32:38;;;;;;;1.50;1.27;;;21.70;98.00;;;;;;5034227;28;20675;-87
2023/08/10 03:35:06;;;;;;;1.50;1.20;;;21.70;98.00;;;;;;5031330;28;20719;-87
2023/08/10 03:37:33;;;;;;;1.57;1.20;;;21.60;98.00;;;;;;5031292;28;20217;-87
2023/08/10 03:40:00;;;;;;;1.60;1.47;;;21.60;98.00;;;;;;5031551;28;20829;-87
2023/08/10 03:42:27;;;;;;;1.60;1.50;;;21.70;98.00;;;;;;5032485;28;20484;-87
2023/08/10 03:44:55;;;;;;;1.60;1.40;;;21.60;98.00;;;;;;5033560;28;20458;-89
2023/08/10 03:47:22;;;;;;;1.67;1.27;;;21.60;98.00;;;;;;5032447;28;20472;-88
2023/08/10 03:49:49;;;;;;;1.30;1.20;;;21.60;98.00;;;;;;5034451;28;20541;-85
2023/08/10 03:52:17;;;;;;;1.43;1.33;;;21.60;98.00;;;;;;5030422;28;20551;-89
2023/08/10 03:54:44;;;;;;;1.43;1.33;;;21.60;98.10;;;;;;5034770;28;20549;-89
2023/08/10 03:57:11;;;;;;;1.93;1.20;;;21.60;98.10;;;;;;5032915;28;20474;-89
2023/08/10 03:59:39;;;;;;;2.73;1.60;;;21.60;98.10;;;;;;5031188;28;20456;-89
2023/08/10 04:02:07;;;;;;;1.60;1.23;;;21.60;98.10;;;;;;5031164;28;20852;-89
2023/08/10 04:04:33;;;;;;;1.70;1.20;;;21.60;98.10;;;;;;5032391;28;20453;-89
2023/08/10 04:07:00;;;;;;;1.83;1.47;;;21.60;98.10;;;;;;5031759;28;20803;-89
2023/08/10 04:09:27;;;;;;;1.27;1.13;;;21.60;98.10;;;;;;5031442;28;20478;-89
2023/08/10 04:11:55;;;;;;;1.40;1.30;;;21.60;98.10;;;;;;5032071;28;21053;-89
2023/08/10 04:14:22;;;;;;;1.40;1.10;;;21.60;98.10;;;;;;5030117;28;20557;-87
2023/08/10 04:16:49;;;;;;;1.63;1.50;;;21.60;98.20;;;;;;5028447;28;20469;-89
2023/08/10 04:19:17;;;;;;;1.40;1.30;;;21.60;98.20;;;;;;5029972;28;20458;-89
2023/08/10 04:21:45;;;;;;;1.50;1.20;;;21.60;98.20;;;;;;5029525;28;20203;-89
2023/08/10 04:24:12;;;;;;;1.40;1.30;;;21.50;98.20;;;;;;5031177;28;20208;-89
2023/08/10 04:26:39;;;;;;;1.50;1.40;;;21.50;98.20;;;;;;5029919;28;20451;-89
2023/08/10 04:29:06;;;;;;;1.73;1.47;;;21.50;98.20;;;;;;5029403;28;20486;-89
2023/08/10 04:31:33;;;;;;;1.90;1.30;;;21.50;98.20;;;;;;5031765;28;20891;-88
2023/08/10 04:34:00;;;;;;;1.60;1.50;;;21.50;98.20;;;;;;5031238;28;20261;-89
2023/08/10 04:36:28;;;;;;;2.07;1.47;;;21.50;98.20;;;;;;5027899;28;20211;-89
2023/08/10 04:38:55;;;;;;;1.17;1.00;;;21.50;98.20;;;;;;5029623;28;20454;-89
2023/08/10 04:41:22;;;;;;;1.60;1.20;;;21.50;98.20;;;;;;5027343;28;20973;-89
2023/08/10 04:43:48;;;;;;;1.42;1.33;;;21.50;98.30;;;;;;5030185;28;20457;-88
2023/08/10 04:46:15;;;;;;;1.30;1.10;;;21.50;98.30;;;;;;5028218;28;20210;-88
2023/08/10 04:48:42;;;;;;;1.50;1.40;;;21.50;98.30;;;;;;5030102;28;20481;-89
2023/08/10 04:51:09;;;;;;;1.17;1.07;;;21.50;98.30;;;;;;5030155;28;20648;-90
2023/08/10 04:53:37;;;;;;;1.30;1.20;;;21.50;98.30;;;;;;5029422;28;20465;-89
2023/08/10 04:56:04;;;;;;;1.42;1.33;;;21.50;98.40;;;;;;5027343;28;20472;-89
2023/08/10 04:58:31;;;;;;;1.77;1.00;;;21.50;98.30;;;;;;5029329;28;20195;-89
2023/08/10 05:00:58;;;;;;;1.30;1.03;;;21.50;98.40;;;;;;5026594;28;20462;-89
2023/08/10 05:03:25;;;;;;;1.35;1.25;;;21.50;98.40;;;;;;5028017;28;20970;-90
2023/08/10 05:05:52;;;;;;;1.30;1.10;;;21.50;98.40;;;;;;5026331;28;20210;-90
2023/08/10 05:08:18;;;;;;;2.17;1.50;;;21.50;98.40;;;;;;5027424;28;20546;-89
2023/08/10 05:10:46;;;;;;;1.37;1.27;;;21.50;98.40;;;;;;5031063;28;20572;-90
2023/08/10 05:13:13;;;;;;;1.57;1.47;;;21.50;98.80;;;;;;5027707;28;20469;-89
2023/08/10 05:15:40;;;;;;;1.50;1.40;;;21.50;98.40;;;;;;5025386;28;21529;-89
2023/08/10 05:18:07;;;;;;;1.40;1.30;;;21.50;98.40;;;;;;5024817;28;20931;-89
2023/08/10 05:20:34;;;;;;;1.48;1.38;;;21.40;98.40;;;;;;5024623;28;20447;-89
2023/08/10 05:23:01;;;;;;;1.50;1.33;;;21.50;98.50;;;;;;5027473;28;20714;-89
2023/08/10 05:25:27;;;;;;;1.57;1.47;;;21.40;98.40;;;;;;5029218;28;20195;-89
2023/08/10 05:27:56;;;;;;;1.30;1.20;;;21.40;98.40;;;;;;5028110;28;20813;-89
2023/08/10 05:30:23;;;;;;;1.80;1.23;;;21.40;98.40;;;;;;5024907;28;20482;-85
2023/08/10 05:32:49;;;;;;;1.67;1.10;;;21.40;98.40;;;;;;5025252;28;20597;-87
2023/08/10 05:35:17;;;;;;;1.43;1.33;;;21.40;98.40;;;;;;5025185;28;20462;-87
2023/08/10 05:37:45;;;;;;;1.50;1.40;;;21.40;98.40;;;;;;5021068;28;20469;-86
2023/08/10 05:40:12;;;;;;;1.20;1.10;;;21.40;98.40;;;;;;5027704;28;20462;-85
2023/08/10 05:42:39;;;;;;;1.47;1.37;;;21.40;98.50;;;;;;5022501;28;20200;-86
2023/08/10 05:45:08;;;;;;;1.50;1.40;;;21.40;98.50;;;;;;5023026;28;21046;-86
2023/08/10 05:47:35;;;;;;;1.47;1.37;;;21.40;98.40;;;;;;5026551;28;20199;-85
2023/08/10 05:50:03;;;;;;;1.53;1.43;;;21.40;98.50;;;;;;5029565;28;20554;-86
2023/08/10 05:52:30;;;;;;;1.30;1.20;;;21.40;98.50;;;;;;5027479;28;20930;-86
2023/08/10 05:54:57;;;;;;;1.53;1.30;;;21.40;98.50;;;;;;5029486;28;20227;-87
2023/08/10 05:57:24;;;;;;;1.40;1.00;;;21.40;98.50;;;;;;5026491;28;20478;-87
2023/08/10 05:59:50;;;;;;;1.30;1.17;;;21.40;98.50;;;;;;5027287;28;20230;-84
2023/08/10 06:02:18;;;;;;;1.30;1.20;;;21.40;98.60;;;;;;5027024;28;20800;-85
2023/08/10 06:04:45;;;;;;;1.42;1.30;;;21.40;98.60;;;;;;5025433;28;21131;-85
2023/08/10 06:07:13;;;;;;;1.47;1.27;;;21.40;98.60;;;;;;5024708;28;20200;-86
2023/08/10 06:09:39;;;;;;;1.20;1.10;;;21.40;98.60;;;;;;5021819;28;20486;-84
2023/08/10 06:12:07;;;;;;;1.30;1.10;;;21.40;98.60;;;;;;5021841;28;20210;-84
2023/08/10 06:14:34;;;;;;;2.03;1.50;;;21.40;98.60;;;;;;5022737;28;22703;-84
2023/08/10 06:17:01;;;;;;;1.30;1.20;;;21.40;98.70;;;;;;5022983;28;20211;-84
2023/08/10 06:19:29;;;;;;;1.70;1.60;;;21.40;98.70;;;;;;5023663;28;20454;-84
2023/08/10 06:21:56;;;;;;;1.33;1.10;;;21.40;98.80;;;;;;5022402;28;20902;-84
2023/08/10 06:24:23;;;;;;;1.30;1.20;;;21.40;98.70;;;;;;5028803;28;20454;-84
2023/08/10 06:26:49;;;;;;;1.50;1.40;;;21.40;98.80;;;;;;5024160;28;20457;-84
2023/08/10 06:29:16;;;;;;;1.40;1.30;;;21.40;98.80;;;;;;5027727;28;20273;-84
2023/08/10 06:31:43;;;;;;;1.20;1.07;;;21.40;98.80;;;;;;5027494;28;20461;-85
2023/08/10 06:34:10;;;;;;;1.20;1.10;;;21.40;98.80;;;;;;5025485;28;20468;-85
2023/08/10 06:36:38;;;;;;;1.60;1.40;;;21.40;98.80;;;;;;5028584;28;20518;-84
2023/08/10 06:39:06;;;;;;;1.60;1.20;;;21.40;98.80;;;;;;5030186;28;20429;-85
2023/08/10 06:41:34;;;;;;;1.25;1.15;;;21.40;98.80;;;;;;5027044;28;20464;-84
2023/08/10 06:44:00;;;;;;;1.93;1.43;;;21.40;98.80;;;;;;5024141;28;20211;-84
2023/08/10 06:46:28;;;;;;;2.67;1.47;;;21.40;98.90;;;;;;5022357;28;20461;-85
2023/08/10 06:48:55;;;;;;;1.47;1.20;;;21.40;98.90;;;;;;5027558;28;20478;-84
2023/08/10 06:51:22;;;;;;;1.70;1.35;;;21.40;98.90;;;;;;5027376;28;20466;-84
2023/08/10 06:53:50;;;;;;;1.57;1.27;;;21.40;98.90;;;;;;5030262;28;20211;-84
2023/08/10 06:56:17;;;;;;;1.83;1.33;;;21.40;99.00;;;;;;5031350;28;20484;-85
2023/08/10 06:58:43;;;;;;;1.73;1.40;;;21.40;99.00;;;;;;5028471;28;20869;-85
2023/08/10 07:01:11;;;;;;;1.73;1.47;;;21.40;99.00;;;;;;5030467;28;20966;-85
2023/08/10 07:03:38;;;;;;;1.50;1.37;;;21.50;99.00;;;;;;5031079;28;20974;-85
2023/08/10 07:06:05;;;;;;;1.13;1.03;;;21.40;99.00;;;;;;5029201;28;20508;-84
2023/08/10 07:08:31;;;;;;;2.73;1.57;;;21.50;99.10;;;;;;5029995;28;20459;-84
2023/08/10 07:11:02;;;;;;;1.10;1.00;;;21.50;99.10;;;;;;5028517;28;20501;-85
2023/08/10 07:13:29;;;;;;;1.30;0.95;;;21.40;99.00;;;;;;5028495;28;20974;-85
2023/08/10 07:15:56;;;;;;;1.73;1.10;;;21.50;99.10;;;;;;5034578;28;20210;-86
2023/08/10 07:18:23;;;;;;;1.65;1.52;;;21.50;99.10;;;;;;5030485;28;20435;-85
2023/08/10 07:20:49;;;;;;;1.13;1.03;;;21.50;99.10;;;;;;5030217;28;20699;-84
2023/08/10 07:23:17;;;;;;;1.23;1.13;;;21.50;99.10;;;;;;5028358;28;21049;-85
2023/08/10 07:25:45;;;;;;;1.30;1.20;;;21.50;99.10;;;;;;5025483;28;20917;-84
2023/08/10 07:28:13;;;;;;;1.60;1.20;;;21.50;99.10;;;;;;5028854;28;20454;-85
2023/08/10 07:30:40;;;;;;;1.30;1.20;;;21.50;99.10;;;;;;5027690;28;21022;-84
2023/08/10 07:33:07;;;;;;;1.87;1.50;;;21.50;99.10;;;;;;5033112;28;20452;-86
2023/08/10 07:35:34;;;;;;;1.20;1.10;;;21.50;99.20;;;;;;5026517;28;20474;-86
2023/08/10 07:38:03;;;;;;;1.23;1.13;;;21.50;99.20;;;;;;5027153;28;20971;-86
2023/08/10 07:40:30;;;;;;;1.10;1.00;;;21.60;99.30;;;;;;5026518;28;20227;-86
2023/08/10 07:42:57;;;;;;;1.30;1.20;;;21.50;99.20;;;;;;5029400;28;20989;-85
2023/08/10 07:45:25;;;;;;;1.60;1.50;;;21.50;99.20;;;;;;5020772;28;20492;-86
2023/08/10 07:47:52;;;;;;;1.80;1.10;;;21.50;99.20;;;;;;5025026;28;20838;-87
2023/08/10 07:50:19;;;;;;;1.83;1.42;;;21.50;99.20;;;;;;5026185;28;20216;-88
2023/08/10 07:52:45;;;;;;;1.08;0.90;;;21.50;99.20;;;;;;5026028;28;20207;-84
2023/08/10 07:55:13;;;;;;;1.40;1.10;;;21.50;99.20;;;;;;5023359;28;20214;-83
2023/08/10 07:57:39;;;;;;;1.07;0.93;;;21.50;99.20;;;;;;5022346;28;20504;-82
2023/08/10 08:00:10;;;;;;;4.27;1.43;;;21.50;99.10;;;;;;5023652;28;21084;-83
2023/08/10 08:02:38;;;;;;;3.87;2.27;;;21.50;98.90;;;;;;5023025;28;20966;-83
2023/08/10 08:05:06;;;;;;;2.33;1.50;;;21.50;98.70;;;;;;5025940;28;20463;-84
2023/08/10 08:07:32;;;;;;;4.00;1.92;;;21.50;98.50;;;;;;5026974;28;20470;-84
2023/08/10 08:10:00;;;;;;;4.97;2.00;;;21.50;98.20;;;;;;5028160;28;20700;-86
2023/08/10 08:12:27;;;;;;;5.10;2.17;;;21.40;97.40;;;;;;5027171;28;20454;-83
2023/08/10 08:14:54;;;;;;;3.30;2.00;;;21.40;97.10;;;;;;5026594;28;20450;-83
2023/08/10 08:17:20;;;;;;;6.57;2.42;;;21.40;96.50;;;;;;5024904;28;20971;-84
2023/08/10 08:19:55;;;;;;;6.77;2.60;;;21.40;96.40;;;;;;5027270;28;20210;-84
2023/08/10 08:22:22;;;;;;;4.60;2.45;;;21.40;96.20;;;;;;5026903;28;20461;-83
2023/08/10 08:24:51;;;;;;;2.57;2.03;;;21.40;96.00;;;;;;5028286;28;20199;-83
2023/08/10 08:27:18;;;;;;;6.90;3.17;;;21.30;96.20;;;;;;5029138;28;21073;-84
2023/08/10 08:29:44;;;;;;;12.13;4.70;;;21.40;96.30;;;;;;5025799;28;20488;-83
2023/08/10 08:32:11;;;;;;;4.95;2.50;;;21.40;95.90;;;;;;5027362;28;20822;-84
2023/08/10 08:34:38;;;;;;;3.30;2.53;;;21.30;95.30;;;;;;5027765;28;20215;-84
2023/08/10 08:37:06;;;;;;;13.90;2.75;;;21.30;95.20;;;;;;5029764;28;20445;-84
2023/08/10 08:39:33;;;;;;;9.10;3.07;;;21.30;95.20;;;;;;5028159;28;20231;-84
2023/08/10 08:42:02;;;;;;;4.93;2.53;;;21.30;95.30;;;;;;5028582;28;20465;-84
2023/08/10 08:44:28;;;;;;;8.03;3.77;;;21.30;95.30;;;;;;5029489;28;20461;-86
2023/08/10 08:46:55;;;;;;;7.70;2.67;;;21.30;95.50;;;;;;5030435;28;20469;-88
2023/08/10 08:49:23;;;;;;;3.27;1.93;;;21.30;95.60;;;;;;5031961;28;20462;-87
2023/08/10 08:51:50;;;;;;;4.83;2.20;;;21.30;95.60;;;;;;5035595;28;20462;-87
2023/08/10 08:54:20;;;;;;;6.07;2.73;;;21.30;95.70;;;;;;5031033;28;20966;-87
2023/08/10 08:56:46;;;;;;;4.47;2.00;;;21.40;95.90;;;;;;5037085;28;20462;-86
2023/08/10 08:59:13;;;;;;;2.00;1.50;;;21.40;95.80;;;;;;5034193;28;20473;-86
2023/08/10 09:01:41;;;;;;;5.30;1.80;;;21.40;95.80;;;;;;5034493;28;20450;-86
2023/08/10 09:04:07;;;;;;;11.40;2.87;;;21.40;95.70;;;;;;5035882;28;20464;-86
2023/08/10 09:06:34;;;;;;;9.03;2.13;;;21.40;95.70;;;;;;5036991;28;20946;-86
2023/08/10 09:09:01;;;;;;;4.60;1.83;;;21.40;95.70;;;;;;5034224;28;20461;-85
2023/08/10 09:11:29;;;;;;;2.47;1.93;;;21.40;95.70;;;;;;5029493;28;21005;-86
2023/08/10 09:14:08;;;;;;;2.43;1.80;;;21.40;95.70;;;;;;5034991;28;20540;-86
2023/08/10 09:16:36;;;;;;;3.03;1.70;;;21.40;95.70;;;;;;5030380;28;20462;-86
2023/08/10 09:19:04;;;;;;;5.10;2.65;;;21.40;95.70;;;;;;5034760;28;20468;-86
2023/08/10 09:21:33;;;;;;;5.63;2.30;;;21.40;95.70;;;;;;5034596;28;20596;-86
2023/08/10 09:24:00;;;;;;;3.87;1.83;;;21.40;95.50;;;;;;5035197;28;20512;-84
2023/08/10 09:26:26;;;;;;;5.93;2.77;;;21.40;95.50;;;;;;5030990;28;20461;-84
2023/08/10 09:28:56;;;;;;;2.50;1.60;;;21.40;95.50;;;;;;5032708;28;20469;-86
2023/08/10 09:31:25;;;;;;;7.30;2.10;;;21.40;95.40;;;;;;5032333;28;21148;-81
2023/08/10 09:33:56;;;;;;;3.37;2.17;;;21.40;95.60;;;;;;5039004;28;21978;-81
2023/08/10 09:36:24;;;;;;;4.20;2.17;;;21.40;95.90;;;;;;5025921;28;20465;-81
2023/08/10 09:38:52;;;;;;;2.33;2.00;;;21.40;96.10;;;;;;5033821;28;20454;-81
2023/08/10 09:41:20;;;;;;;2.53;1.30;;;21.40;96.10;;;;;;5029449;28;20715;-82
2023/08/10 09:43:48;;;;;;;5.20;2.27;;;21.40;96.20;;;;;;5024888;28;20924;-81
2023/08/10 09:46:17;;;;;;;2.47;1.60;;;21.40;96.20;;;;;;5022203;28;20453;-79
2023/08/10 09:48:45;;;;;;;3.87;1.97;;;21.40;95.90;;;;;;5021620;28;20987;-83
2023/08/10 09:51:13;;;;;;;2.90;1.83;;;21.40;96.20;;;;;;5040282;28;20876;-82
2023/08/10 09:53:43;;;;;;;2.37;2.07;;;21.40;96.10;;;;;;5018374;28;22577;-88
2023/08/10 09:56:10;;;;;;;4.53;1.87;;;21.40;96.10;;;;;;5010863;28;20631;-86
2023/08/10 09:58:38;;;;;;;7.17;1.77;;;21.40;96.10;;;;;;5015089;28;20786;-86
2023/08/10 10:01:06;;;;;;;3.80;1.43;;;21.40;96.00;;;;;;5019046;28;20457;-86
2023/08/10 10:03:34;;;;;;;3.70;1.57;;;21.40;95.60;;;;;;5015662;28;20516;-88
2023/08/10 10:06:01;;;;;;;4.27;1.23;;;21.40;95.20;;;;;;5016200;28;21228;-88
2023/08/10 10:08:29;;;;;;;2.87;1.20;;;21.40;94.80;;;;;;5017515;28;20605;-86
2023/08/10 10:10:59;;;;;;;2.30;1.30;;;21.40;94.60;;;;;;5023700;28;20478;-86
2023/08/10 10:13:26;;;;;;;3.70;1.73;;;21.40;94.40;;;;;;5025041;28;20963;-87
2023/08/10 10:15:55;;;;;;;2.67;1.83;;;21.40;94.00;;;;;;5026693;28;20971;-86
2023/08/10 10:18:22;;;;;;;2.33;1.50;;;21.40;93.80;;;;;;5027051;28;20451;-85
2023/08/10 10:20:52;;;;;;;1.97;1.70;;;21.40;93.90;;;;;;5025195;28;20453;-84
2023/08/10 10:23:20;;;;;;;4.70;2.07;;;21.50;94.40;;;;;;5025543;28;20469;-87
2023/08/10 10:25:58;;;;;;;2.90;1.70;;;21.50;94.40;;;;;;5029595;28;20457;-93
2023/08/10 10:28:26;;;;;;;1.77;1.50;;;21.50;94.60;;;;;;5035642;28;20446;-90
2023/08/10 10:30:55;;;;;;;4.17;1.60;;;21.60;94.80;;;;;;5033244;28;20486;-89
2023/08/10 10:33:23;;;;;;;2.23;1.40;;;21.60;94.90;;;;;;5034460;28;20451;-89
2023/08/10 10:36:10;;;;;;;4.80;1.60;;;21.60;95.00;;;;;;5033911;28;20895;-85
2023/08/10 10:38:39;;;;;;;2.60;1.80;;;21.70;95.10;;;;;;5031683;28;20473;-90
2023/08/10 10:41:11;;;;;;;2.37;1.50;;;21.70;95.20;;;;;;5034642;28;20807;-91
2023/08/10 10:43:37;;;;;;;2.13;1.57;;;21.70;95.30;;;;;;5034814;28;20450;-92
2023/08/10 10:46:04;;;;;;;3.83;1.57;;;21.80;95.40;;;;;;5032320;28;20466;-90
2023/08/10 10:48:35;;;;;;;2.40;1.67;;;21.80;95.40;;;;;;5008781;28;20804;-88
2023/08/10 10:51:04;;;;;;;2.10;1.20;;;21.80;95.50;;;;;;5032143;28;20540;-88
2023/08/10 10:53:34;;;;;;;3.00;1.50;;;21.80;95.50;;;;;;5033906;28;20488;-87
2023/08/10 10:56:01;;;;;;;2.53;1.30;;;21.90;95.60;;;;;;5030136;28;20465;-82
2023/08/10 10:58:30;;;;;;;4.80;1.50;;;21.90;95.70;;;;;;5031707;28;20866;-88
2023/08/10 11:00:58;;;;;;;2.13;1.40;;;21.90;95.70;;;;;;5032621;28;20493;-86
2023/08/10 11:03:28;;;;;;;2.80;1.40;;;21.90;95.70;;;;;;5031360;28;20462;-84
2023/08/10 11:05:55;;;;;;;2.80;1.63;;;21.90;95.20;;;;;;5028588;28;20457;-85
2023/08/10 11:08:22;;;;;;;2.90;1.87;;;21.90;94.90;;;;;;5030104;28;20835;-85
2023/08/10 11:10:51;;;;;;;4.23;1.70;;;21.90;94.90;;;;;;5030651;28;20486;-89
2023/08/10 11:13:20;;;;;;;2.20;1.73;;;21.90;94.70;;;;;;5034715;28;20466;-88
2023/08/10 11:15:48;;;;;;;2.90;1.70;;;22.00;95.10;;;;;;5030202;28;20461;-90
2023/08/10 11:18:15;;;;;;;1.97;1.33;;;22.00;95.10;;;;;;5029937;28;20469;-89
2023/08/10 11:20:46;;;;;;;1.70;1.60;;;22.00;95.20;;;;;;5028591;28;20454;-88
2023/08/10 11:23:13;;;;;;;2.90;1.50;;;22.10;95.30;;;;;;5031788;28;20527;-90
2023/08/10 11:25:48;;;;;;;2.80;1.60;;;22.10;95.30;;;;;;5032949;28;20450;-89
2023/08/10 11:28:18;;;;;;;3.10;1.70;;;22.10;95.40;;;;;;5030886;28;20573;-89
2023/08/10 11:30:46;;;;;;;2.07;1.50;;;22.10;95.40;;;;;;5029579;28;20474;-83
2023/08/10 11:33:13;;;;;;;3.30;1.90;;;22.10;95.50;;;;;;5028580;28;20544;-82
2023/08/10 11:35:44;;;;;;;2.87;1.60;;;22.20;95.60;;;;;;5030744;28;21082;-82
2023/08/10 11:38:11;;;;;;;3.37;1.67;;;22.20;95.60;;;;;;5031030;28;20809;-86
2023/08/10 11:40:38;;;;;;;2.40;1.50;;;22.20;95.60;;;;;;5025570;28;20453;-86
2023/08/10 11:43:08;;;;;;;3.00;1.83;;;22.20;95.70;;;;;;5030582;28;20547;-85
2023/08/10 11:45:37;;;;;;;2.03;1.33;;;22.20;95.70;;;;;;5027573;28;20467;-84
2023/08/10 11:48:09;;;;;;;2.33;1.63;;;22.30;95.80;;;;;;5025634;28;20468;-85
2023/08/10 11:50:38;;;;;;;4.00;1.60;;;22.30;95.80;;;;;;5026132;28;21425;-81
2023/08/10 11:53:11;;;;;;;2.60;1.70;;;22.30;95.90;;;;;;5020943;28;20470;-81
2023/08/10 11:55:42;;;;;;;2.80;1.50;;;22.30;95.80;;;;;;5029728;28;20461;-83
2023/08/10 11:58:09;;;;;;;3.33;1.90;;;22.30;95.90;;;;;;5023993;28;20502;-86
2023/08/10 12:00:39;;;;;;;5.30;3.90;;;22.30;95.90;;;;;;5023007;28;21058;-86
2023/08/10 12:03:08;;;;;;;4.83;3.00;;;22.30;95.70;;;;;;5024210;28;20501;-86
2023/08/10 12:05:40;;;;;;;5.20;1.80;;;22.30;95.50;;;;;;5029154;28;20455;-87
2023/08/10 12:08:09;;;;;;;2.83;2.23;;;22.30;95.70;;;;;;5025975;28;20466;-85
2023/08/10 12:10:37;;;;;;;3.27;2.07;;;22.30;95.70;;;;;;5026871;28;20915;-86
2023/08/10 12:13:05;;;;;;;2.77;2.20;;;22.40;95.80;;;;;;5029030;28;20743;-86
2023/08/10 12:15:32;;;;;;;4.37;2.00;;;22.40;95.80;;;;;;5024967;28;20461;-86
2023/08/10 12:18:00;;;;;;;7.63;2.33;;;22.40;95.80;;;;;;5026910;28;20462;-86
2023/08/10 12:20:28;;;;;;;2.93;2.10;;;22.40;95.80;;;;;;5028125;28;20518;-86
2023/08/10 12:22:55;;;;;;;3.40;2.67;;;22.40;95.90;;;;;;5029743;28;20453;-83
2023/08/10 12:25:22;;;;;;;3.23;2.23;;;22.50;95.90;;;;;;5024826;28;20467;-86
2023/08/10 12:27:49;;;;;;;4.73;2.23;;;22.50;95.90;;;;;;5019679;28;21057;-86
2023/08/10 12:30:16;;;;;;;3.93;3.07;;;22.50;95.90;;;;;;5024240;28;20466;-84
2023/08/10 12:32:43;;;;;;;2.90;2.30;;;22.50;95.90;;;;;;5022196;28;20497;-85
2023/08/10 12:35:12;;;;;;;3.30;2.47;;;22.50;95.90;;;;;;5027383;28;20447;-86
2023/08/10 12:37:39;;;;;;;3.30;2.07;;;22.50;95.90;;;;;;5026968;28;20934;-86
2023/08/10 12:40:07;;;;;;;4.47;2.37;;;22.50;96.00;;;;;;5028171;28;20544;-85
2023/08/10 12:42:34;;;;;;;3.00;2.37;;;22.60;96.00;;;;;;5027432;28;20457;-86
2023/08/10 12:45:01;;;;;;;4.07;2.53;;;22.60;96.00;;;;;;5024940;28;20842;-85
2023/08/10 12:47:28;;;;;;;3.73;2.53;;;22.60;96.00;;;;;;5023056;28;20463;-79